Terminal Aerodrome Forecast
Issued by NWS Jackson, MS

Home | Current Version | Previous Version | Text Only | Print | Product List | Glossary On
Versions: 1 2 3 4 5 6 7 8 9 10 11 12 13
000
FTUS44 KJAN 220530
TAFHBG
TAF
KHBG 220530Z 2206/2306 14006KT P6SM SKC
     FM221600 18010KT P6SM -SHRA BKN015 BKN050
     FM221800 20010KT P6SM VCSH BKN025 BKN250
     FM222200 24008KT P6SM VCSH FEW050 SCT250
     FM230000 25006KT P6SM FEW250=

USA.gov is the U.S. government's official web portal to all federal, state and local government web resources and services.